Time;durP1;ratioP1;P1;durP2;ratioP2;P2;SDS_P1;SDS_P2;PMS_P1;PMS_P2;Temp;Humidity;BMP_temperature;BMP_pressure;BME280_temperature;BME280_humidity;BME280_pressure;Samples;Min_cycle;Max_cycle;Signal;HPM_P1;HPM_P2
2021/12/06 00:02:04;;;;;;;24.80;15.88;;;3.10;82.10;;;;;;5074398;28;20020;-62
2021/12/06 00:04:36;;;;;;;23.77;15.52;;;3.10;81.90;;;;;;5079298;28;20024;-62
2021/12/06 00:07:10;;;;;;;22.45;16.27;;;3.10;82.00;;;;;;5081768;28;20018;-62
2021/12/06 00:09:37;;;;;;;25.25;16.58;;;3.00;82.10;;;;;;5093967;28;20024;-62
2021/12/06 00:12:04;;;;;;;25.80;16.15;;;2.90;82.30;;;;;;5089553;28;20026;-62
2021/12/06 00:14:34;;;;;;;27.50;17.00;;;2.90;82.80;;;;;;5093723;28;20032;-62
2021/12/06 00:17:03;;;;;;;24.80;17.00;;;2.90;83.00;;;;;;5093954;28;20008;-62
2021/12/06 00:19:30;;;;;;;25.83;15.98;;;2.90;83.40;;;;;;5093831;28;20028;-62
2021/12/06 00:21:57;;;;;;;24.48;16.20;;;2.80;83.50;;;;;;5082179;28;20040;-62
2021/12/06 00:24:24;;;;;;;28.13;17.00;;;2.80;83.70;;;;;;5076868;28;20494;-62
2021/12/06 00:26:50;;;;;;;28.20;18.35;;;2.80;83.90;;;;;;5073557;28;20028;-62
2021/12/06 00:29:16;;;;;;;28.83;17.48;;;2.80;84.10;;;;;;5075712;28;20041;-62
2021/12/06 00:31:42;;;;;;;25.15;16.60;;;2.80;84.20;;;;;;5073535;28;20487;-62
2021/12/06 00:34:09;;;;;;;26.23;16.38;;;2.80;84.40;;;;;;5078631;28;20016;-62
2021/12/06 00:36:39;;;;;;;30.70;18.30;;;2.80;84.10;;;;;;5075513;28;20044;-62
2021/12/06 00:39:08;;;;;;;26.88;16.55;;;2.80;84.50;;;;;;5073822;28;20107;-62
2021/12/06 00:41:35;;;;;;;26.73;17.30;;;2.80;84.40;;;;;;5073497;28;20029;-62
2021/12/06 00:44:01;;;;;;;28.67;18.05;;;2.80;84.50;;;;;;5079502;28;20118;-62
2021/12/06 00:46:27;;;;;;;28.25;18.95;;;2.80;84.60;;;;;;5077794;28;20102;-62
2021/12/06 00:48:52;;;;;;;31.63;18.52;;;2.80;84.50;;;;;;5073716;28;20465;-62
2021/12/06 00:51:19;;;;;;;27.63;17.98;;;2.80;84.50;;;;;;5082898;28;20035;-62
2021/12/06 00:53:44;;;;;;;30.38;18.92;;;2.80;84.60;;;;;;5078307;28;20017;-62
2021/12/06 00:56:11;;;;;;;31.27;18.02;;;2.80;84.70;;;;;;5077152;28;20031;-62
2021/12/06 00:58:38;;;;;;;29.60;18.83;;;2.80;84.80;;;;;;5073226;28;20077;-62
2021/12/06 01:01:05;;;;;;;31.98;20.25;;;2.90;84.90;;;;;;5081042;28;20024;-62
2021/12/06 01:03:34;;;;;;;31.33;19.25;;;2.90;84.90;;;;;;5080432;28;20050;-62
2021/12/06 01:06:00;;;;;;;30.40;18.80;;;2.90;85.00;;;;;;5085676;28;20025;-62
2021/12/06 01:08:26;;;;;;;29.55;18.83;;;2.80;85.20;;;;;;5077752;28;20111;-62
2021/12/06 01:10:53;;;;;;;30.40;18.80;;;2.80;85.40;;;;;;5072659;28;20017;-62
2021/12/06 01:13:19;;;;;;;30.48;18.80;;;2.80;85.50;;;;;;5074491;28;20112;-62
2021/12/06 01:15:46;;;;;;;31.92;18.75;;;2.80;85.50;;;;;;5093108;28;20026;-62
2021/12/06 01:18:17;;;;;;;29.20;19.25;;;2.80;85.70;;;;;;5087036;28;20456;-62
2021/12/06 01:20:53;;;;;;;30.88;19.85;;;2.80;85.90;;;;;;5081441;28;20024;-62
2021/12/06 01:23:26;;;;;;;33.83;20.13;;;2.80;85.80;;;;;;5077642;28;20033;-61
2021/12/06 01:31:19;;;;;;;;;;;2.70;86.10;;;;;;5081941;28;20027;-62
2021/12/06 01:39:17;;;;;;;35.33;18.80;;;2.70;86.30;;;;;;5083868;28;20483;-62
2021/12/06 01:41:53;;;;;;;32.28;19.17;;;2.80;86.40;;;;;;5074023;28;20055;-62
2021/12/06 01:44:31;;;;;;;30.52;19.38;;;2.70;87.00;;;;;;5072460;28;20373;-62
2021/12/06 01:47:05;;;;;;;29.08;18.33;;;2.70;86.50;;;;;;5079966;28;20028;-62
2021/12/06 01:49:37;;;;;;;32.60;19.75;;;2.80;86.80;;;;;;5079626;28;20348;-62
2021/12/06 01:52:13;;;;;;;32.75;19.67;;;2.80;86.70;;;;;;5074228;28;20050;-62
2021/12/06 01:54:39;;;;;;;33.05;19.58;;;2.80;86.90;;;;;;5084087;28;20073;-62
2021/12/06 01:57:06;;;;;;;34.45;20.00;;;2.70;86.90;;;;;;5084929;28;20100;-62
2021/12/06 01:59:33;;;;;;;35.35;20.95;;;2.70;87.20;;;;;;5072454;28;20028;-62
2021/12/06 02:01:59;;;;;;;33.38;19.55;;;2.70;87.60;;;;;;5072384;28;20052;-62
2021/12/06 02:04:26;;;;;;;29.90;19.42;;;2.70;87.80;;;;;;5075930;28;20032;-62
2021/12/06 02:06:52;;;;;;;34.00;20.30;;;2.70;87.90;;;;;;5080272;28;20024;-62
2021/12/06 02:09:19;;;;;;;30.35;18.25;;;2.70;87.90;;;;;;5072579;28;20272;-62
2021/12/06 02:11:46;;;;;;;31.25;18.80;;;2.60;88.00;;;;;;5077683;28;20039;-62
2021/12/06 02:14:41;;;;;;;31.33;18.05;;;2.70;88.20;;;;;;5080326;28;20032;-62
2021/12/06 02:19:42;;;;;;;31.30;18.48;;;2.60;88.40;;;;;;5084552;28;20383;-62
2021/12/06 02:22:14;;;;;;;32.30;18.80;;;2.70;88.50;;;;;;5073173;28;20052;-62
2021/12/06 02:24:40;;;;;;;30.10;18.17;;;2.70;88.10;;;;;;5090171;28;20284;-62
2021/12/06 02:27:09;;;;;;;34.47;19.45;;;2.80;88.20;;;;;;5073839;28;20081;-62
2021/12/06 02:29:35;;;;;;;33.92;20.20;;;2.80;88.00;;;;;;5072008;28;20028;-62
2021/12/06 02:32:05;;;;;;;34.88;19.63;;;2.80;87.90;;;;;;5072074;28;20021;-62
2021/12/06 02:34:31;;;;;;;32.83;19.17;;;2.80;88.00;;;;;;5072017;28;20491;-62
2021/12/06 02:36:57;;;;;;;38.63;18.95;;;2.80;88.20;;;;;;5076653;28;20386;-62
2021/12/06 02:39:24;;;;;;;35.40;19.70;;;2.80;88.20;;;;;;5082147;28;20020;-62
2021/12/06 02:41:52;;;;;;;32.88;18.65;;;2.90;88.60;;;;;;5086771;28;20095;-62
2021/12/06 02:44:19;;;;;;;33.30;18.58;;;2.90;88.10;;;;;;5073323;28;20032;-62
2021/12/06 02:46:45;;;;;;;35.83;20.83;;;3.00;87.90;;;;;;5089202;28;20032;-62
2021/12/06 02:49:11;;;;;;;34.75;20.48;;;3.00;87.80;;;;;;5075719;28;20017;-62
2021/12/06 02:51:37;;;;;;;34.47;20.63;;;3.00;87.80;;;;;;5075290;28;20021;-62
2021/12/06 02:54:03;;;;;;;38.10;21.10;;;3.10;87.70;;;;;;5075931;28;20631;-62
2021/12/06 02:58:58;;;;;;;39.88;23.33;;;3.00;87.40;;;;;;5083051;28;20036;-62
2021/12/06 03:01:38;;;;;;;38.90;22.08;;;3.00;87.50;;;;;;5080337;28;20048;-62
2021/12/06 03:04:04;;;;;;;36.45;21.30;;;2.90;87.60;;;;;;5082011;28;20372;-62
2021/12/06 03:06:31;;;;;;;42.70;22.77;;;2.90;88.00;;;;;;5079745;28;20572;-62
2021/12/06 03:09:17;;;;;;;41.22;22.55;;;2.80;88.30;;;;;;5095268;28;20016;-62
2021/12/06 03:11:47;;;;;;;38.20;20.42;;;2.80;88.70;;;;;;5085168;28;20052;-62
2021/12/06 03:14:17;;;;;;;37.65;21.30;;;2.80;88.90;;;;;;5075774;28;20027;-62
2021/12/06 03:16:43;;;;;;;40.78;22.48;;;2.80;89.20;;;;;;5083775;28;20020;-62
2021/12/06 03:19:09;;;;;;;35.97;20.73;;;2.80;89.30;;;;;;5074774;28;20016;-62
2021/12/06 03:21:36;;;;;;;36.03;21.92;;;2.80;89.40;;;;;;5087368;28;20059;-62
2021/12/06 03:24:03;;;;;;;39.60;21.40;;;2.90;89.50;;;;;;5094711;28;20028;-62
2021/12/06 03:26:29;;;;;;;40.22;22.58;;;2.90;89.20;;;;;;5083381;28;20424;-62
2021/12/06 03:28:55;;;;;;;39.25;22.23;;;2.90;89.30;;;;;;5078740;28;20169;-62
2021/12/06 03:31:25;;;;;;;39.53;22.10;;;2.80;89.40;;;;;;5079905;28;20069;-62
2021/12/06 03:33:53;;;;;;;41.47;22.40;;;2.80;89.70;;;;;;5089348;28;20099;-62
2021/12/06 03:36:22;;;;;;;39.05;21.80;;;2.80;90.10;;;;;;5074711;28;20486;-62
2021/12/06 03:38:48;;;;;;;34.50;20.80;;;2.80;90.00;;;;;;5074379;28;20356;-62
2021/12/06 03:41:15;;;;;;;38.67;20.25;;;2.80;90.10;;;;;;5074411;28;20103;-62
2021/12/06 03:43:42;;;;;;;38.08;20.58;;;2.80;90.20;;;;;;5074367;28;20030;-62
2021/12/06 03:46:11;;;;;;;38.60;21.85;;;2.90;90.20;;;;;;5076214;28;20020;-62
2021/12/06 03:48:37;;;;;;;40.40;21.10;;;2.90;90.10;;;;;;5075842;28;20483;-62
2021/12/06 03:51:04;;;;;;;38.42;21.33;;;2.90;90.10;;;;;;5074619;28;20025;-62
2021/12/06 03:53:30;;;;;;;35.65;21.30;;;3.00;90.20;;;;;;5077424;28;20460;-62
2021/12/06 03:55:56;;;;;;;38.13;20.00;;;3.00;90.00;;;;;;5082083;28;20021;-62
2021/12/06 03:58:22;;;;;;;35.42;19.83;;;3.10;90.00;;;;;;5086576;28;20036;-62
2021/12/06 04:00:48;;;;;;;35.97;20.63;;;3.10;89.80;;;;;;5094174;28;20048;-62
2021/12/06 04:03:15;;;;;;;37.42;21.95;;;3.00;89.80;;;;;;5081152;28;20024;-62
2021/12/06 04:05:41;;;;;;;39.42;20.02;;;3.10;89.80;;;;;;5079637;28;20027;-62
2021/12/06 04:08:06;;;;;;;37.88;21.08;;;3.10;89.90;;;;;;5073770;28;20107;-62
2021/12/06 04:10:32;;;;;;;38.05;21.27;;;3.00;89.70;;;;;;5073804;28;20024;-62
2021/12/06 04:12:59;;;;;;;35.25;20.88;;;3.00;89.90;;;;;;5079408;28;20020;-62
2021/12/06 04:15:29;;;;;;;33.33;19.95;;;3.00;90.00;;;;;;5088284;28;20483;-62
2021/12/06 04:17:56;;;;;;;35.13;19.50;;;3.10;90.10;;;;;;5086536;28;20100;-62
2021/12/06 04:20:22;;;;;;;34.13;19.67;;;3.10;90.10;;;;;;5078059;28;20064;-62
2021/12/06 04:22:47;;;;;;;36.17;21.40;;;3.10;90.10;;;;;;5074042;28;20079;-62
2021/12/06 04:25:15;;;;;;;38.53;21.77;;;3.10;90.10;;;;;;5073552;28;20024;-62
2021/12/06 04:27:42;;;;;;;37.95;21.20;;;3.10;90.10;;;;;;5073462;28;20115;-62
2021/12/06 04:30:10;;;;;;;37.80;21.23;;;3.10;90.20;;;;;;5073331;28;20028;-62
2021/12/06 04:32:37;;;;;;;36.10;19.17;;;3.10;90.20;;;;;;5078066;28;20523;-62
2021/12/06 04:35:04;;;;;;;32.55;18.13;;;3.10;90.30;;;;;;5093603;28;20091;-62
2021/12/06 04:37:29;;;;;;;29.50;18.85;;;3.10;90.30;;;;;;5082160;28;20025;-62
2021/12/06 04:39:55;;;;;;;35.08;18.92;;;3.10;90.30;;;;;;5073364;28;20478;-62
2021/12/06 04:42:21;;;;;;;36.30;19.70;;;3.10;90.40;;;;;;5073141;28;20036;-62
2021/12/06 04:44:47;;;;;;;36.45;19.90;;;3.10;90.50;;;;;;5073198;28;20029;-62
2021/12/06 04:47:13;;;;;;;31.48;18.23;;;3.10;90.50;;;;;;5088794;28;20027;-62
2021/12/06 04:49:39;;;;;;;35.45;20.10;;;3.10;90.50;;;;;;5093453;28;20036;-62
2021/12/06 04:52:08;;;;;;;33.22;19.63;;;3.10;90.60;;;;;;5092250;28;20112;-62
2021/12/06 04:54:42;;;;;;;35.63;20.17;;;3.10;90.70;;;;;;5083068;28;20464;-62
2021/12/06 04:57:19;;;;;;;37.35;20.05;;;3.20;90.70;;;;;;5072937;28;20036;-62
2021/12/06 04:59:52;;;;;;;38.60;21.30;;;3.20;90.60;;;;;;5072980;28;20484;-62
2021/12/06 05:02:23;;;;;;;41.22;22.38;;;3.20;90.70;;;;;;5072622;28;20090;-62
2021/12/06 05:04:53;;;;;;;40.08;20.20;;;3.20;90.70;;;;;;5080089;28;20131;-62
2021/12/06 05:07:30;;;;;;;37.47;21.42;;;3.20;90.70;;;;;;5074532;28;20031;-62
2021/12/06 05:09:56;;;;;;;37.63;20.75;;;3.20;90.80;;;;;;5073894;28;20146;-62
2021/12/06 05:12:25;;;;;;;38.55;21.73;;;3.20;90.90;;;;;;5082378;28;20024;-62
2021/12/06 05:14:51;;;;;;;39.42;22.20;;;3.20;90.90;;;;;;5082724;28;20023;-62
2021/12/06 05:17:18;;;;;;;33.03;19.05;;;3.20;91.00;;;;;;5088870;28;20024;-62
2021/12/06 05:19:43;;;;;;;38.72;19.63;;;3.20;91.10;;;;;;5093083;28;20372;-62
2021/12/06 05:22:09;;;;;;;37.47;21.38;;;3.20;91.10;;;;;;5091296;28;20044;-62
2021/12/06 05:24:35;;;;;;;32.10;19.90;;;3.20;91.10;;;;;;5073001;28;20040;-62
2021/12/06 05:27:04;;;;;;;33.80;19.83;;;3.20;91.10;;;;;;5074775;28;20028;-62
2021/12/06 05:29:30;;;;;;;35.60;19.75;;;3.30;91.10;;;;;;5083635;28;20036;-61
2021/12/06 05:31:58;;;;;;;38.83;21.38;;;3.30;91.10;;;;;;5092981;28;20024;-62
2021/12/06 05:34:32;;;;;;;35.95;20.30;;;3.30;91.20;;;;;;5086498;28;20135;-62
2021/12/06 05:36:58;;;;;;;32.95;19.45;;;3.20;91.10;;;;;;5086591;28;20036;-62
2021/12/06 05:39:30;;;;;;;36.67;20.90;;;3.30;91.20;;;;;;5092686;28;20023;-62
2021/12/06 05:41:56;;;;;;;;;;;3.30;91.30;;;;;;5093280;28;20020;-62
2021/12/06 05:44:22;;;;;;;32.58;18.63;;;3.20;91.30;;;;;;5091761;28;19931;-62
2021/12/06 05:46:47;;;;;;;35.10;18.67;;;3.30;91.30;;;;;;5085618;28;20028;-62
2021/12/06 05:49:13;;;;;;;32.83;18.88;;;3.30;91.20;;;;;;5074118;28;20528;-62
2021/12/06 05:51:38;;;;;;;33.88;19.63;;;3.30;91.20;;;;;;5072495;28;20025;-62
2021/12/06 05:54:04;;;;;;;38.25;20.38;;;3.30;91.20;;;;;;5072462;28;20025;-62
2021/12/06 05:56:30;;;;;;;34.63;19.38;;;3.40;91.30;;;;;;5072704;28;20032;-62
2021/12/06 05:58:55;;;;;;;33.75;19.77;;;3.40;91.30;;;;;;5071876;28;20056;-62
2021/12/06 06:01:28;;;;;;;31.95;19.60;;;3.40;91.30;;;;;;5073646;28;20025;-62
2021/12/06 06:03:54;;;;;;;31.80;19.45;;;3.40;91.30;;;;;;5086633;28;20047;-62
2021/12/06 06:06:20;;;;;;;32.28;18.58;;;3.50;91.30;;;;;;5072747;28;20036;-62
2021/12/06 06:08:45;;;;;;;32.95;19.33;;;3.50;91.20;;;;;;5072572;28;20040;-62
2021/12/06 06:11:11;;;;;;;28.90;16.98;;;3.50;91.30;;;;;;5074777;28;20111;-62
2021/12/06 06:13:37;;;;;;;31.95;18.27;;;3.50;91.30;;;;;;5080566;28;20067;-62
2021/12/06 06:16:03;;;;;;;34.05;19.45;;;3.50;91.30;;;;;;5088642;28;20027;-62
2021/12/06 06:18:28;;;;;;;33.22;19.45;;;3.50;91.40;;;;;;5084627;28;20043;-62
2021/12/06 06:20:55;;;;;;;29.85;18.67;;;3.50;91.50;;;;;;5078713;28;20021;-62
2021/12/06 06:23:23;;;;;;;33.08;20.48;;;3.50;91.60;;;;;;5082789;28;20603;-62
2021/12/06 06:25:49;;;;;;;34.60;18.95;;;3.60;91.70;;;;;;5076078;28;20492;-62
2021/12/06 06:28:15;;;;;;;34.30;18.52;;;3.60;91.70;;;;;;5076264;28;20063;-62
2021/12/06 06:30:41;;;;;;;33.22;18.98;;;3.70;91.50;;;;;;5077716;28;20120;-62
2021/12/06 06:33:07;;;;;;;28.40;18.67;;;3.80;91.40;;;;;;5077631;28;20051;-62
2021/12/06 06:35:33;;;;;;;34.63;20.48;;;3.80;91.40;;;;;;5077973;28;20141;-62
2021/12/06 06:37:59;;;;;;;32.00;20.00;;;3.90;91.30;;;;;;5078708;28;20517;-66
2021/12/06 06:40:25;;;;;;;37.15;19.60;;;3.90;91.30;;;;;;5074075;28;20126;-62
2021/12/06 06:42:50;;;;;;;33.55;19.92;;;3.90;91.10;;;;;;5077065;28;20550;-62
2021/12/06 06:45:19;;;;;;;31.30;20.27;;;3.90;91.00;;;;;;5077197;28;20032;-62
2021/12/06 06:47:46;;;;;;;32.35;19.70;;;3.90;91.10;;;;;;5075388;28;20035;-62
2021/12/06 06:50:11;;;;;;;32.92;19.10;;;3.90;91.00;;;;;;5076391;28;20056;-62
2021/12/06 06:52:38;;;;;;;33.53;19.85;;;3.90;91.00;;;;;;5071975;28;20424;-62
2021/12/06 06:55:05;;;;;;;33.35;19.92;;;3.90;91.00;;;;;;5068727;28;20028;-62
2021/12/06 06:57:31;;;;;;;35.22;20.73;;;4.00;91.10;;;;;;5076236;28;20028;-62
2021/12/06 06:59:57;;;;;;;33.65;22.05;;;4.00;91.20;;;;;;5076849;28;20039;-62
2021/12/06 07:02:23;;;;;;;30.17;20.48;;;4.00;91.20;;;;;;5069108;28;20023;-62
2021/12/06 07:04:48;;;;;;;34.17;21.70;;;4.10;91.20;;;;;;5073441;28;20089;-62
2021/12/06 07:07:14;;;;;;;31.63;20.60;;;4.10;91.00;;;;;;5075544;28;20028;-62
2021/12/06 07:09:42;;;;;;;34.10;20.20;;;4.20;91.00;;;;;;5072446;28;20032;-62
2021/12/06 07:12:14;;;;;;;31.92;19.83;;;4.20;90.90;;;;;;5077007;28;20044;-62
2021/12/06 07:14:39;;;;;;;33.92;20.30;;;4.20;90.90;;;;;;5070787;28;20052;-62
2021/12/06 07:17:05;;;;;;;30.15;19.30;;;4.20;90.90;;;;;;5076043;28;20068;-62
2021/12/06 07:19:31;;;;;;;29.30;18.63;;;4.20;90.80;;;;;;5070288;28;20028;-61
2021/12/06 07:21:58;;;;;;;29.98;19.23;;;4.20;90.70;;;;;;5070679;28;20055;-61
2021/12/06 07:24:24;;;;;;;34.67;19.25;;;4.20;90.60;;;;;;5073766;28;20055;-62
2021/12/06 07:26:49;;;;;;;32.17;19.90;;;4.10;90.70;;;;;;5071139;28;20718;-62
2021/12/06 07:29:15;;;;;;;34.60;20.55;;;4.10;90.80;;;;;;5066220;28;20034;-62
2021/12/06 07:31:41;;;;;;;32.90;20.67;;;4.10;90.90;;;;;;5070209;28;20055;-62
2021/12/06 07:34:06;;;;;;;32.85;18.83;;;4.10;91.00;;;;;;5067030;28;20027;-61
2021/12/06 07:36:32;;;;;;;30.27;18.70;;;4.10;91.10;;;;;;5067416;28;20021;-62
2021/12/06 07:38:58;;;;;;;31.75;18.90;;;4.10;91.20;;;;;;5074589;28;20515;-62
2021/12/06 07:41:28;;;;;;;29.25;18.27;;;4.10;91.20;;;;;;5062786;28;20029;-62
2021/12/06 07:43:55;;;;;;;32.58;19.35;;;4.10;91.30;;;;;;5064226;28;20032;-62
2021/12/06 07:46:21;;;;;;;35.38;21.45;;;4.20;91.30;;;;;;5068209;28;20051;-61
2021/12/06 07:48:52;;;;;;;29.08;19.77;;;4.20;91.30;;;;;;5065564;28;20387;-62
2021/12/06 07:51:19;;;;;;;30.55;18.60;;;4.20;91.40;;;;;;5068057;28;20028;-61
2021/12/06 07:53:44;;;;;;;30.02;18.05;;;4.20;91.50;;;;;;5068308;28;20038;-62
2021/12/06 07:56:10;;;;;;;27.13;17.15;;;4.30;91.50;;;;;;5069605;28;20063;-61
2021/12/06 07:58:36;;;;;;;28.92;17.13;;;4.40;91.40;;;;;;5070960;28;20033;-62
2021/12/06 08:01:02;;;;;;;25.55;16.55;;;4.40;91.30;;;;;;5070732;28;20516;-62
2021/12/06 08:03:30;;;;;;;25.58;15.73;;;4.40;91.30;;;;;;5068637;28;20034;-61
2021/12/06 08:05:56;;;;;;;27.08;16.30;;;4.40;91.20;;;;;;5064189;28;20702;-60
2021/12/06 08:08:28;;;;;;;25.80;15.23;;;4.50;91.30;;;;;;5066748;28;20121;-61
2021/12/06 08:10:58;;;;;;;24.38;15.60;;;4.50;91.30;;;;;;5068014;28;20033;-60
2021/12/06 08:13:27;;;;;;;24.80;15.02;;;4.60;91.20;;;;;;5069124;28;20035;-60
2021/12/06 08:15:56;;;;;;;26.15;15.32;;;4.60;91.20;;;;;;5067283;28;20037;-62
2021/12/06 08:18:22;;;;;;;25.23;16.05;;;4.70;91.10;;;;;;5062572;28;20095;-60
2021/12/06 08:20:50;;;;;;;23.27;14.45;;;4.70;91.10;;;;;;5063706;28;20634;-58
2021/12/06 08:23:16;;;;;;;23.02;14.35;;;4.70;90.90;;;;;;5064900;28;20044;-59
2021/12/06 08:25:46;;;;;;;18.75;12.68;;;4.70;90.80;;;;;;5067581;28;20035;-56
2021/12/06 08:28:11;;;;;;;25.55;14.65;;;4.70;90.90;;;;;;5063984;28;20047;-58
2021/12/06 08:30:38;;;;;;;22.30;13.70;;;4.70;91.00;;;;;;5065199;28;20632;-60
2021/12/06 08:33:05;;;;;;;22.83;13.50;;;4.60;91.10;;;;;;5063679;28;20024;-57
2021/12/06 08:35:32;;;;;;;22.60;13.75;;;4.70;91.00;;;;;;5066563;28;20713;-59
2021/12/06 08:37:59;;;;;;;22.65;14.93;;;4.70;91.00;;;;;;5063655;28;20044;-57
2021/12/06 08:40:27;;;;;;;22.48;14.65;;;4.70;90.90;;;;;;5060383;28;20031;-59
2021/12/06 08:42:53;;;;;;;20.88;14.30;;;4.70;90.80;;;;;;5068662;28;20375;-59
2021/12/06 08:45:20;;;;;;;22.75;13.82;;;4.70;90.80;;;;;;5064148;28;20035;-59
2021/12/06 08:47:46;;;;;;;26.45;17.48;;;4.70;90.90;;;;;;5068416;28;20966;-58
2021/12/06 08:50:18;;;;;;;23.42;15.15;;;4.70;91.00;;;;;;5063886;28;20042;-57
2021/12/06 08:52:44;;;;;;;22.00;14.50;;;4.60;91.00;;;;;;5062068;28;20043;-60
2021/12/06 08:55:11;;;;;;;20.25;13.13;;;4.60;91.10;;;;;;5064931;28;20028;-60
2021/12/06 08:57:37;;;;;;;18.20;12.68;;;4.60;91.50;;;;;;5062827;28;20131;-60
2021/12/06 09:00:11;;;;;;;18.83;12.77;;;4.70;91.20;;;;;;5057010;28;20368;-59
2021/12/06 09:02:38;;;;;;;17.77;11.95;;;4.70;91.20;;;;;;5057321;28;20043;-59
2021/12/06 09:05:05;;;;;;;18.17;12.48;;;4.70;91.20;;;;;;5060817;28;21046;-60
2021/12/06 09:07:32;;;;;;;18.50;12.07;;;4.80;91.20;;;;;;5066141;28;20047;-59
2021/12/06 09:09:57;;;;;;;17.38;11.95;;;4.80;91.00;;;;;;5063438;28;20048;-59
2021/12/06 09:12:26;;;;;;;17.30;12.05;;;4.80;90.90;;;;;;5063299;28;20680;-58
2021/12/06 09:14:57;;;;;;;17.48;12.00;;;4.80;90.90;;;;;;5064692;28;20030;-61
2021/12/06 09:17:23;;;;;;;;;;;4.80;91.00;;;;;;5069144;28;20728;-60
2021/12/06 09:19:49;;;;;;;17.52;11.05;;;4.70;90.90;;;;;;5061185;28;19939;-60
2021/12/06 09:22:16;;;;;;;17.73;11.60;;;4.70;91.00;;;;;;5057505;28;20076;-61
2021/12/06 09:24:42;;;;;;;17.25;12.38;;;4.70;91.10;;;;;;5063303;28;20081;-60
2021/12/06 09:27:09;;;;;;;19.13;11.90;;;4.80;91.20;;;;;;5062896;28;20441;-60
2021/12/06 09:29:36;;;;;;;18.13;11.98;;;4.80;91.30;;;;;;5055725;28;20111;-61
2021/12/06 09:32:04;;;;;;;17.27;11.60;;;4.80;91.20;;;;;;5056540;28;20032;-61
2021/12/06 09:34:31;;;;;;;15.27;10.30;;;4.80;91.10;;;;;;5064449;28;20833;-62
2021/12/06 09:36:58;;;;;;;16.95;11.45;;;4.90;91.10;;;;;;5069730;28;20081;-62
2021/12/06 09:39:25;;;;;;;17.90;11.60;;;4.90;91.10;;;;;;5062952;28;20028;-62
2021/12/06 09:41:52;;;;;;;15.73;10.80;;;4.90;91.00;;;;;;5062895;28;20067;-60
2021/12/06 09:44:18;;;;;;;17.00;10.85;;;4.90;91.10;;;;;;5062372;28;20490;-61
2021/12/06 09:46:45;;;;;;;16.77;10.75;;;4.90;91.00;;;;;;5070381;28;20088;-59
2021/12/06 09:49:15;;;;;;;15.43;10.50;;;4.90;91.10;;;;;;5066008;28;20039;-58
2021/12/06 09:51:50;;;;;;;15.32;10.00;;;4.90;91.20;;;;;;5068697;28;20487;-63
2021/12/06 09:54:20;;;;;;;14.50;9.38;;;4.90;91.10;;;;;;5069373;28;20798;-61
2021/12/06 09:56:48;;;;;;;15.57;9.88;;;4.90;91.10;;;;;;5066750;28;20503;-58
2021/12/06 09:59:18;;;;;;;13.80;10.30;;;5.00;91.30;;;;;;5061370;28;20032;-61
2021/12/06 10:01:51;;;;;;;15.00;9.43;;;5.00;91.30;;;;;;5064883;28;20032;-59
2021/12/06 10:04:19;;;;;;;16.30;10.60;;;5.10;91.10;;;;;;5067512;28;20020;-60
2021/12/06 10:06:46;;;;;;;13.77;9.48;;;5.10;90.90;;;;;;5073042;28;20111;-59
2021/12/06 10:09:12;;;;;;;15.23;9.88;;;5.10;90.90;;;;;;5060730;28;20028;-60
2021/12/06 10:11:39;;;;;;;12.88;8.73;;;5.10;91.00;;;;;;5066143;28;20028;-61
2021/12/06 10:14:05;;;;;;;14.50;9.30;;;5.10;91.10;;;;;;5067937;28;20459;-61
2021/12/06 10:16:31;;;;;;;14.80;8.70;;;5.10;91.00;;;;;;5069859;28;20027;-58
2021/12/06 10:18:58;;;;;;;13.88;9.32;;;5.10;91.00;;;;;;5057076;28;20578;-59
2021/12/06 10:21:27;;;;;;;11.93;8.65;;;5.10;90.90;;;;;;5062319;28;20044;-59
2021/12/06 10:23:56;;;;;;;12.82;8.90;;;5.10;90.90;;;;;;5068285;28;20115;-59
2021/12/06 10:26:25;;;;;;;16.70;10.43;;;5.10;90.80;;;;;;5060521;28;20135;-62
2021/12/06 10:29:02;;;;;;;11.90;8.50;;;5.10;90.90;;;;;;5063269;28;20356;-60
2021/12/06 10:31:31;;;;;;;12.52;8.60;;;5.10;90.90;;;;;;5069528;28;20035;-61
2021/12/06 10:33:57;;;;;;;13.52;8.65;;;5.10;90.90;;;;;;5063929;28;20032;-61
2021/12/06 10:36:25;;;;;;;11.95;8.02;;;5.10;91.10;;;;;;5063154;28;20031;-60
2021/12/06 10:38:54;;;;;;;11.20;7.80;;;5.10;91.10;;;;;;5063144;28;20035;-62
2021/12/06 10:41:25;;;;;;;12.38;8.75;;;5.10;91.00;;;;;;5073150;28;20084;-59
2021/12/06 10:44:09;;;;;;;11.85;8.13;;;5.10;90.90;;;;;;5066895;28;20028;-59
2021/12/06 10:46:38;;;;;;;9.88;6.60;;;5.10;91.00;;;;;;5066104;28;20122;-58
2021/12/06 10:49:08;;;;;;;10.68;6.88;;;5.10;91.10;;;;;;5059343;28;20028;-57
2021/12/06 10:51:34;;;;;;;8.65;6.07;;;5.00;91.10;;;;;;5072522;28;20024;-59
2021/12/06 10:54:07;;;;;;;10.85;6.45;;;5.00;91.20;;;;;;5062232;28;20021;-58
2021/12/06 10:56:43;;;;;;;9.70;6.57;;;5.00;91.20;;;;;;5068373;28;20039;-58
2021/12/06 10:59:23;;;;;;;8.60;5.93;;;5.00;91.20;;;;;;5066566;28;20155;-56
2021/12/06 11:01:51;;;;;;;8.55;5.43;;;5.00;91.20;;;;;;5063265;28;20698;-57
2021/12/06 11:04:21;;;;;;;8.88;6.00;;;5.00;91.20;;;;;;5066559;28;20590;-56
2021/12/06 11:06:49;;;;;;;8.13;5.50;;;4.90;91.30;;;;;;5072044;28;20078;-57
2021/12/06 11:09:23;;;;;;;7.22;5.00;;;4.90;91.40;;;;;;5074303;28;20032;-57
2021/12/06 11:11:57;;;;;;;8.88;5.53;;;4.90;91.50;;;;;;5073868;28;20028;-57
2021/12/06 11:14:26;;;;;;;8.45;5.50;;;5.00;91.50;;;;;;5071378;28;20154;-57
2021/12/06 11:16:59;;;;;;;9.18;5.72;;;5.00;91.50;;;;;;5067166;28;20035;-58
2021/12/06 11:19:28;;;;;;;8.13;5.40;;;5.00;91.50;;;;;;5072244;28;20084;-57
2021/12/06 11:22:06;;;;;;;7.95;5.82;;;5.00;91.50;;;;;;5068683;28;20508;-57
2021/12/06 11:24:40;;;;;;;7.78;5.55;;;5.00;91.50;;;;;;5065861;28;20024;-57
2021/12/06 11:27:21;;;;;;;7.90;5.28;;;4.90;91.50;;;;;;5072402;28;20035;-57
2021/12/06 11:30:08;;;;;;;7.32;5.28;;;4.90;91.50;;;;;;5070104;28;20028;-55
2021/12/06 11:32:45;;;;;;;7.43;4.82;;;4.90;91.60;;;;;;5070982;28;22081;-57
2021/12/06 11:35:15;;;;;;;7.35;5.32;;;4.90;91.80;;;;;;5070656;28;20051;-58
2021/12/06 11:37:50;;;;;;;8.48;5.20;;;4.80;91.80;;;;;;5069799;28;20024;-57
2021/12/06 11:40:31;;;;;;;9.13;5.75;;;4.80;92.00;;;;;;5065324;28;20024;-58
2021/12/06 11:43:00;;;;;;;8.47;5.70;;;4.80;92.00;;;;;;5068826;28;20725;-57
2021/12/06 11:45:43;;;;;;;8.15;5.53;;;4.80;92.10;;;;;;5070557;28;20039;-58
2021/12/06 11:48:13;;;;;;;7.70;5.28;;;4.80;92.20;;;;;;5069054;28;20147;-58
2021/12/06 11:50:43;;;;;;;7.85;5.40;;;4.80;92.40;;;;;;5064065;28;20369;-58
2021/12/06 11:53:11;;;;;;;8.48;5.45;;;4.80;92.40;;;;;;5066994;28;20040;-59
2021/12/06 11:55:47;;;;;;;8.60;5.70;;;4.80;92.40;;;;;;5065843;28;20411;-58
2021/12/06 11:58:32;;;;;;;10.13;6.00;;;4.90;92.40;;;;;;5059694;28;20035;-58
2021/12/06 12:01:16;;;;;;;8.15;5.13;;;4.80;92.30;;;;;;5060312;28;20042;-58
2021/12/06 12:03:50;;;;;;;6.15;4.53;;;4.80;92.40;;;;;;5060897;28;20353;-57
2021/12/06 12:06:28;;;;;;;7.72;5.47;;;4.90;92.40;;;;;;5065709;28;20995;-58
2021/12/06 12:09:22;;;;;;;9.52;5.97;;;4.90;92.50;;;;;;5063264;28;20373;-58
2021/12/06 12:12:10;;;;;;;9.48;5.78;;;4.90;92.50;;;;;;5059527;28;20044;-57
2021/12/06 12:14:49;;;;;;;9.20;5.90;;;4.90;92.60;;;;;;5064108;28;20087;-59
2021/12/06 12:17:28;;;;;;;10.10;6.13;;;4.90;92.70;;;;;;5067288;28;20032;-61
2021/12/06 12:19:57;;;;;;;8.73;5.75;;;4.90;92.70;;;;;;5063050;28;20874;-57
2021/12/06 12:22:24;;;;;;;9.30;5.97;;;4.90;92.70;;;;;;5062949;28;20044;-59
2021/12/06 12:24:54;;;;;;;10.63;6.05;;;4.90;92.60;;;;;;5064740;28;20496;-58
2021/12/06 12:27:34;;;;;;;10.70;6.68;;;4.90;92.60;;;;;;5062441;28;20420;-58
2021/12/06 12:30:01;;;;;;;11.00;6.60;;;4.90;92.60;;;;;;5061760;28;20051;-59
2021/12/06 12:32:29;;;;;;;10.43;6.28;;;4.90;92.80;;;;;;5063265;28;20973;-60
2021/12/06 12:34:59;;;;;;;9.45;6.07;;;4.90;92.80;;;;;;5065267;28;20035;-58
2021/12/06 12:37:26;;;;;;;11.45;7.13;;;4.90;92.80;;;;;;5058207;28;20141;-58
2021/12/06 12:40:03;;;;;;;12.20;7.22;;;4.90;92.80;;;;;;5063348;28;20031;-56
2021/12/06 12:42:29;;;;;;;11.45;6.68;;;4.90;92.80;;;;;;5064161;28;22625;-58
2021/12/06 12:44:56;;;;;;;10.60;7.07;;;4.90;92.90;;;;;;5068268;28;20467;-59
2021/12/06 12:47:24;;;;;;;10.65;7.15;;;4.90;92.90;;;;;;5066876;28;20035;-58
2021/12/06 12:49:54;;;;;;;12.38;8.00;;;4.90;93.10;;;;;;5060266;28;20047;-59
2021/12/06 12:52:46;;;;;;;11.40;7.63;;;4.90;93.00;;;;;;5060439;28;21574;-60
2021/12/06 12:55:40;;;;;;;12.80;7.80;;;4.90;93.10;;;;;;5064185;28;20377;-60
2021/12/06 12:58:10;;;;;;;12.55;8.13;;;4.90;93.20;;;;;;5058618;28;20109;-58
2021/12/06 13:00:51;;;;;;;13.18;8.57;;;4.90;93.20;;;;;;5064011;28;20073;-60
2021/12/06 13:03:40;;;;;;;15.02;8.45;;;4.90;93.20;;;;;;5067897;28;20541;-60
2021/12/06 13:06:23;;;;;;;13.15;8.85;;;4.90;93.20;;;;;;5065560;28;20044;-60